Sunday, October 21, 2018, 5:44 PM GMT
Back to Local

CYWA, Petawawa, Ont.

Location: , , Canada Lat: 45.95
Local Time: 5:44 PM GMT (17:44 GMT) Lon: -77.317
Time Zone: GMT Elev: 426 ft

Show me the last for .
Show Decoded

2018-10-21 17:19 METAR CYWA 211719Z AUTO 30010G18KT 280V360 9SM OVC034 02/M06 A3006 =
2018-10-21 17:00 METAR CYWA 211700Z AUTO 31011G17KT 9SM OVC034 02/M06 A3006 RMK SLP187 =
2018-10-21 16:25 METAR CYWA 211625Z AUTO 28011G19KT 270V340 9SM OVC035 02/M06 A3007 =
2018-10-21 16:00 METAR CYWA 211600Z AUTO 32016G22KT 9SM OVC035 OVC058 02/M07 A3007 RMK SLP189 =
2018-10-21 15:00 METAR CYWA 211500Z AUTO 30009G15KT 270V340 9SM OVC031 OVC086 01/M07 A3006 RMK
                 SLP186 =
2018-10-21 14:00 METAR CYWA 211400Z AUTO 31011G18KT 9SM BKN035 BKN075 BKN082 01/M07 A3006 RMK
                 SLP185 =
2018-10-21 13:00 METAR CYWA 211300Z AUTO 30009KT 9SM OVC034 00/M06 A3005 RMK SLP182 =
2018-10-21 12:00 METAR CYWA 211200Z AUTO 31009KT 9SM SCT034 M01/M07 A3002 RMK SLP171 =
2018-10-21 11:00 METAR CYWA 211100Z AUTO 31009KT 9SM OVC032 M01/M06 A2999 RMK SLP163 =
2018-10-21 10:00 METAR CYWA 211000Z AUTO 31010KT 9SM FEW037 M01/M07 A2996 RMK SLP153 =
2018-10-21 09:00 METAR CYWA 210900Z AUTO 32011KT 290V350 9SM FEW036 SCT045 M01/M05 A2993 RMK
                 SLP141 =
2018-10-21 08:59 METAR CYWA 210859Z AUTO 33009G15KT 290V350 9SM FEW036 SCT045 M01/M06 A2993 =
2018-10-21 08:24 METAR CYWA 210824Z AUTO 32011G17KT 9SM OVC023 M00/M05 A2991 =
2018-10-21 08:04 METAR CYWA 210804Z AUTO 31009KT 9SM -SN OVC023 M00/M04 A2990 =
2018-10-21 08:03 METAR CYWA 210803Z AUTO 31008KT 9SM -SN BKN026 M00/M04 A2990 =
2018-10-21 08:00 METAR CYWA 210800Z AUTO 30007KT 9SM BKN026 M00/M05 A2990 RMK SLP131 =
2018-10-21 07:00 METAR CYWA 210700Z AUTO 31007KT 9SM BKN026 M01/M03 A2988 RMK SLP125 =
2018-10-21 06:51 METAR CYWA 210651Z AUTO 32010KT 9SM OVC026 M00/M03 A2988 =
2018-10-21 06:33 METAR CYWA 210633Z AUTO 31008KT 9SM -SN FEW026 SCT036 00/M04 A2987 =
2018-10-21 06:00 METAR CYWA 210600Z AUTO 32011G16KT 9SM FEW022 FEW027 SCT044 00/M04 A2986 RMK
                 SLP116 =
2018-10-21 05:16 METAR CYWA 210516Z AUTO 31010G16KT 9SM OVC025 00/M03 A2984 =
2018-10-21 05:03 METAR CYWA 210503Z AUTO 32008KT 8SM -RA OVC025 01/M04 A2984 =
2018-10-21 05:00 METAR CYWA 210500Z AUTO 31008KT 9SM OVC025 01/M04 A2984 RMK SLP110 =
2018-10-21 04:00 METAR CYWA 210400Z AUTO 31012KT 9SM OVC029 02/M04 A2981 RMK SLP101 =
2018-10-21 03:00 METAR CYWA 210300Z AUTO 31009KT 9SM BKN025 01/M03 A2979 RMK SLP094 =
2018-10-21 02:52 METAR CYWA 210252Z AUTO 31010KT 9SM BKN025 01/M03 A2978 =
2018-10-21 02:07 METAR CYWA 210207Z AUTO 32008KT 9SM BKN019 01/M01 A2976 =
2018-10-21 02:01 METAR CYWA 210201Z AUTO 32010KT 4SM -SN BKN019 BKN048 01/M01 A2976 =
2018-10-21 02:00 METAR CYWA 210200Z AUTO 31009KT 2 1/2SM -SN BKN019 BKN048 01/M01 A2976 RMK VSBY
                 VRBL 1.1V9.+ SLP084 =
2018-10-21 01:54 METAR CYWA 210154Z AUTO 31008KT 2 1/2SM -SN OVC019 01/M01 A2976 RMK VSBY VRBL
                 1.1V9.+ =
2018-10-21 01:36 METAR CYWA 210136Z AUTO 31007KT 9SM -SN OVC021 OVC042 02/M01 A2975 =
2018-10-21 01:00 METAR CYWA 210100Z AUTO 30007KT 9SM OVC021 02/M01 A2973 RMK SLP074 =
2018-10-21 00:37 METAR CYWA 210037Z AUTO 31007KT 9SM BKN021 02/M01 A2972 =
2018-10-21 00:18 METAR CYWA 210018Z AUTO 31007KT 9SM SCT022 02/M01 A2971 =
2018-10-21 00:10 METAR CYWA 210010Z AUTO 32006KT 9SM BKN019 02/M01 A2971 =
2018-10-21 00:00 METAR CYWA 210000Z AUTO 31007KT 9SM -UP OVC019 OVC045 02/M00 A2971 RMK SLP067 =
2018-10-20 23:50 METAR CYWA 202350Z AUTO 31008KT 9SM -SN OVC019 OVC045 03/M01 A2971 =
2018-10-20 23:27 METAR CYWA 202327Z AUTO 32010KT 9SM BKN021 BKN045 BKN051 03/M01 A2970 =
2018-10-20 23:01 METAR CYWA 202301Z AUTO 32008G15KT 9SM FEW028 SCT049 03/M01 A2968 =
2018-10-20 23:00 METAR CYWA 202300Z AUTO 32009G15KT 9SM BKN019 BKN049 03/M01 A2968 RMK SLP054 =
2018-10-20 22:19 METAR CYWA 202219Z AUTO 32008KT 9SM BKN019 04/M00 A2965 =
2018-10-20 22:00 METAR CYWA 202200Z AUTO 32009G16KT 9SM FEW024 FEW034 SCT070 04/M01 A2964 RMK
                 SLP043 =
2018-10-20 21:00 METAR CYWA 202100Z AUTO 33021KT 9SM FEW034 BKN063 05/00 A2961 RMK SLP032 =
2018-10-20 20:00 METAR CYWA 202000Z AUTO 30013KT 9SM SCT012 SCT055 BKN061 06/01 A2959 RMK SLP026
                 =
2018-10-20 19:56 METAR CYWA 201956Z AUTO 31010KT 9SM SCT012 SCT055 BKN061 06/02 A2959 =
2018-10-20 19:31 METAR CYWA 201931Z AUTO 30017G24KT 7SM RA BKN012 OVC048 OVC066 OVC072 05/02
                 A2959 =
2018-10-20 19:30 METAR CYWA 201930Z AUTO 30020KT 9SM RA BKN020 BKN048 OVC066 OVC072 05/03 A2959 =
2018-10-20 19:29 METAR CYWA 201929Z AUTO 30019G24KT 9SM -RA SCT029 BKN048 BKN066 OVC072 06/02
                 A2959 =
2018-10-20 19:00 METAR CYWA 201900Z AUTO 31012G17KT 9SM OVC043 08/M00 A2956 RMK SLP016 =
2018-10-20 18:18 METAR CYWA 201818Z AUTO 30011KT 9SM OVC039 08/01 A2955 =
2018-10-20 18:13 METAR CYWA 201813Z AUTO 29009KT 9SM -RA OVC039 08/01 A2955 =
2018-10-20 18:00 METAR CYWA 201800Z AUTO 30010KT 270V330 9SM OVC039 OVC067 08/M00 A2955 RMK
                 SLP012 =

Support USWX by starting your Amazon purchase here.